createdAt,value
2018-07-01T00:00:52.789Z,41.96
2018-07-01T00:01:52.777Z,42.06
2018-07-01T00:02:52.760Z,41.96
2018-07-01T00:03:52.765Z,41.67
2018-07-01T00:04:52.766Z,41.77
2018-07-01T00:05:52.764Z,41.67
2018-07-01T00:06:52.772Z,42.06
2018-07-01T00:07:52.718Z,41.67
2018-07-01T00:08:52.712Z,41.58
2018-07-01T00:09:52.715Z,41.87
2018-07-01T00:10:52.719Z,41.67
2018-07-01T00:11:52.743Z,42.16
2018-07-01T00:12:52.687Z,42.16
2018-07-01T00:13:52.685Z,42.06
2018-07-01T00:14:52.675Z,42.64
2018-07-01T00:15:52.665Z,42.54
2018-07-01T00:16:52.652Z,42.93
2018-07-01T00:17:52.686Z,43.12
2018-07-01T00:18:52.650Z,43.31
2018-07-01T00:19:52.624Z,43.31
2018-07-01T00:20:52.632Z,43.60
2018-07-01T00:21:52.620Z,43.79
2018-07-01T00:22:52.608Z,43.98
2018-07-01T00:23:52.612Z,43.50
2018-07-01T00:24:52.649Z,43.60
2018-07-01T00:25:52.577Z,43.70
2018-07-01T00:26:52.569Z,43.77
2018-07-01T00:27:52.565Z,43.70
2018-07-01T00:28:52.559Z,43.70
2018-07-01T00:29:52.555Z,43.98
2018-07-01T00:30:52.549Z,44.15
2018-07-01T00:31:52.543Z,44.15
2018-07-01T00:32:52.534Z,43.70
2018-07-01T00:33:52.519Z,43.48
2018-07-01T00:34:52.500Z,43.48
2018-07-01T00:35:52.509Z,43.77
2018-07-01T00:36:52.496Z,43.77
2018-07-01T00:37:52.491Z,43.87
2018-07-01T00:38:52.491Z,44.06
2018-07-01T00:39:52.471Z,44.15
2018-07-01T00:40:52.728Z,43.48
2018-07-01T00:41:52.454Z,43.87
2018-07-01T00:42:52.456Z,44.06
2018-07-01T00:43:52.436Z,44.63
2018-07-01T00:44:52.434Z,44.54
2018-07-01T00:45:52.448Z,44.54
2018-07-01T00:46:52.472Z,44.24
2018-07-01T00:47:52.410Z,44.63
2018-07-01T00:48:52.398Z,44.06
2018-07-01T00:49:52.395Z,44.34
2018-07-01T00:50:52.387Z,43.96
2018-07-01T00:51:52.373Z,44.15
2018-07-01T00:52:52.369Z,44.24
2018-07-01T00:53:52.368Z,44.24
2018-07-01T00:54:52.346Z,44.24
2018-07-01T00:55:52.350Z,44.24
2018-07-01T00:56:52.365Z,44.15
2018-07-01T00:57:52.325Z,44.24
2018-07-01T00:58:52.327Z,44.24
2018-07-01T00:59:52.342Z,44.24
2018-07-01T01:00:52.299Z,44.44
2018-07-01T01:01:52.280Z,44.63
2018-07-01T01:02:52.292Z,44.92
2018-07-01T01:03:52.279Z,44.63
2018-07-01T01:04:52.304Z,44.44
2018-07-01T01:05:52.276Z,45.01
2018-07-01T01:06:52.714Z,44.32
2018-07-01T01:07:52.256Z,44.63
2018-07-01T01:08:52.225Z,44.34
2018-07-01T01:09:52.226Z,44.70
2018-07-01T01:10:52.221Z,44.70
2018-07-01T01:11:52.200Z,44.90
2018-07-01T01:12:52.208Z,44.90
2018-07-01T01:13:52.197Z,44.23
2018-07-01T01:14:52.178Z,45.09
2018-07-01T01:15:52.215Z,45.18
2018-07-01T01:16:52.197Z,45.37
2018-07-01T01:17:52.161Z,45.76
2018-07-01T01:18:52.153Z,45.47
2018-07-01T01:19:52.145Z,45.37
2018-07-01T01:20:52.147Z,45.67
2018-07-01T01:21:52.150Z,45.18
2018-07-01T01:22:52.254Z,45.37
2018-07-01T01:23:52.109Z,45.57
2018-07-01T01:24:52.112Z,45.57
2018-07-01T01:25:52.103Z,45.45
2018-07-01T01:26:52.085Z,45.57
2018-07-01T01:27:52.108Z,45.00
2018-07-01T01:28:52.347Z,45.64
2018-07-01T01:29:52.058Z,46.12
2018-07-01T01:30:52.044Z,46.12
2018-07-01T01:31:52.028Z,46.41
2018-07-01T01:32:52.071Z,46.41
2018-07-01T01:33:52.053Z,45.74
2018-07-01T01:34:52.019Z,45.83
2018-07-01T01:35:52.007Z,45.26
2018-07-01T01:36:51.989Z,45.57
2018-07-01T01:37:51.989Z,45.93
2018-07-01T01:38:52.005Z,45.54
2018-07-01T01:39:51.978Z,46.31
2018-07-01T01:40:51.974Z,46.24
2018-07-01T01:41:51.957Z,45.64
2018-07-01T01:42:51.980Z,46.41
2018-07-01T01:43:52.075Z,46.31
2018-07-01T01:44:51.922Z,45.54
2018-07-01T01:45:51.921Z,45.54
2018-07-01T01:46:51.903Z,45.37
2018-07-01T01:47:51.904Z,46.31
2018-07-01T01:48:51.892Z,46.31
2018-07-01T01:49:51.879Z,45.54
2018-07-01T01:50:51.869Z,46.43
2018-07-01T01:51:51.870Z,46.41
2018-07-01T01:52:51.870Z,46.31
2018-07-01T01:53:51.861Z,46.22
2018-07-01T01:54:51.847Z,45.93
2018-07-01T01:55:51.829Z,45.93
2018-07-01T01:56:51.831Z,46.31
2018-07-01T01:57:51.824Z,46.22
2018-07-01T01:58:51.813Z,46.31
2018-07-01T01:59:51.872Z,46.12
2018-07-01T02:00:51.798Z,46.12
2018-07-01T02:01:51.773Z,45.93
2018-07-01T02:02:51.770Z,46.31
2018-07-01T02:03:51.760Z,46.41
2018-07-01T02:04:51.745Z,46.14
2018-07-01T02:05:51.761Z,46.22
2018-07-01T02:06:51.735Z,46.31
2018-07-01T02:07:51.721Z,46.03
2018-07-01T02:08:51.721Z,46.34
2018-07-01T02:09:51.707Z,46.12
2018-07-01T02:10:51.732Z,46.31
2018-07-01T02:11:51.704Z,46.22
2018-07-01T02:12:51.695Z,45.93
2018-07-01T02:13:51.683Z,46.22
2018-07-01T02:14:51.670Z,46.22
2018-07-01T02:15:51.674Z,46.22
2018-07-01T02:16:51.677Z,45.76
2018-07-01T02:17:51.652Z,45.93
2018-07-01T02:18:51.632Z,46.03
2018-07-01T02:19:51.619Z,46.22
2018-07-01T02:20:51.623Z,46.41
2018-07-01T02:21:51.606Z,46.41
2018-07-01T02:22:51.597Z,46.22
2018-07-01T02:23:51.591Z,45.74
2018-07-01T02:24:51.569Z,46.31
2018-07-01T02:25:51.574Z,46.50
2018-07-01T02:26:51.603Z,46.12
2018-07-01T02:27:51.546Z,45.93
2018-07-01T02:28:51.543Z,45.93
2018-07-01T02:29:51.546Z,46.03
2018-07-01T02:30:51.532Z,46.41
2018-07-01T02:31:51.577Z,46.79
2018-07-01T02:32:51.525Z,46.31
2018-07-01T02:33:51.496Z,46.60
2018-07-01T02:34:51.497Z,46.60
2018-07-01T02:35:51.484Z,46.50
2018-07-01T02:36:51.466Z,46.60
2018-07-01T02:37:51.499Z,46.89
2018-07-01T02:38:51.535Z,46.89
2018-07-01T02:39:52.242Z,46.89
2018-07-01T02:40:51.439Z,46.79
2018-07-01T02:41:51.425Z,47.08
2018-07-01T02:42:51.457Z,46.79
2018-07-01T02:43:51.442Z,46.50
2018-07-01T02:44:51.400Z,46.60
2018-07-01T02:45:51.394Z,46.89
2018-07-01T02:46:51.386Z,46.50
2018-07-01T02:47:51.376Z,47.08
2018-07-01T02:48:51.379Z,46.98
2018-07-01T02:49:51.357Z,46.89
2018-07-01T02:50:51.346Z,47.56
2018-07-01T02:51:51.341Z,47.85
2018-07-01T02:52:51.330Z,47.85
2018-07-01T02:53:51.438Z,47.85
2018-07-01T02:54:51.360Z,47.66
2018-07-01T02:55:51.303Z,47.56
2018-07-01T02:56:51.297Z,47.85
2018-07-01T02:57:51.288Z,47.75
2018-07-01T02:58:51.266Z,47.66
2018-07-01T02:59:51.320Z,47.66
2018-07-01T03:00:51.264Z,47.56
2018-07-01T03:01:51.247Z,47.46
2018-07-01T03:02:51.255Z,47.46
2018-07-01T03:03:51.237Z,47.56
2018-07-01T03:04:51.233Z,47.75
2018-07-01T03:05:51.220Z,47.56
2018-07-01T03:06:51.250Z,47.08
2018-07-01T03:07:51.196Z,47.08
2018-07-01T03:08:51.385Z,47.08
2018-07-01T03:09:51.190Z,47.08
2018-07-01T03:10:51.285Z,47.46
2018-07-01T03:11:51.160Z,47.17
2018-07-01T03:12:51.137Z,47.46
2018-07-01T03:13:51.146Z,47.27
2018-07-01T03:14:51.134Z,47.37
2018-07-01T03:15:51.130Z,47.27
2018-07-01T03:16:51.139Z,46.98
2018-07-01T03:17:51.109Z,47.08
2018-07-01T03:18:51.116Z,46.89
2018-07-01T03:19:51.080Z,47.25
2018-07-01T03:20:51.068Z,47.25
2018-07-01T03:21:51.101Z,47.06
2018-07-01T03:22:51.059Z,47.53
2018-07-01T03:23:51.053Z,47.73
2018-07-01T03:24:51.039Z,47.73
2018-07-01T03:25:51.031Z,47.63
2018-07-01T03:26:51.083Z,47.63
2018-07-01T03:27:51.047Z,47.73
2018-07-01T03:28:51.004Z,47.53
2018-07-01T03:29:51.004Z,47.73
2018-07-01T03:30:50.981Z,48.02
2018-07-01T03:31:50.993Z,47.92
2018-07-01T03:32:50.986Z,47.82
2018-07-01T03:33:50.957Z,47.73
2018-07-01T03:34:50.958Z,47.82
2018-07-01T03:35:50.940Z,47.82
2018-07-01T03:36:50.933Z,47.92
2018-07-01T03:37:50.927Z,47.82
2018-07-01T03:38:50.951Z,47.44
2018-07-01T03:39:50.905Z,47.73
2018-07-01T03:40:50.899Z,47.94
2018-07-01T03:41:50.892Z,47.73
2018-07-01T03:42:50.933Z,47.82
2018-07-01T03:43:50.872Z,47.44
2018-07-01T03:44:50.868Z,47.73
2018-07-01T03:45:50.844Z,47.53
2018-07-01T03:46:50.843Z,47.73
2018-07-01T03:47:50.825Z,47.92
2018-07-01T03:48:50.870Z,47.92
2018-07-01T03:49:50.836Z,47.92
2018-07-01T03:50:50.817Z,47.63
2018-07-01T03:51:50.787Z,47.82
2018-07-01T03:52:50.777Z,47.82
2018-07-01T03:53:50.803Z,47.63
2018-07-01T03:54:50.765Z,47.82
2018-07-01T03:55:50.757Z,47.53
2018-07-01T03:56:50.757Z,47.63
2018-07-01T03:57:50.746Z,48.11
2018-07-01T03:58:50.778Z,48.30
2018-07-01T03:59:50.717Z,48.30
2018-07-01T04:00:50.719Z,48.69
2018-07-01T04:01:50.714Z,48.49
2018-07-01T04:02:50.712Z,48.69
2018-07-01T04:03:50.764Z,48.40
2018-07-01T04:04:50.780Z,48.40
2018-07-01T04:05:50.676Z,48.49
2018-07-01T04:06:50.669Z,48.49
2018-07-01T04:07:50.653Z,48.49
2018-07-01T04:08:50.645Z,49.16
2018-07-01T04:09:50.663Z,49.16
2018-07-01T04:10:50.618Z,48.88
2018-07-01T04:11:50.614Z,48.49
2018-07-01T04:12:50.602Z,48.49
2018-07-01T04:13:52.262Z,48.69
2018-07-01T04:14:50.816Z,48.21
2018-07-01T04:15:50.567Z,48.21
2018-07-01T04:16:50.579Z,48.49
2018-07-01T04:17:50.552Z,48.49
2018-07-01T04:18:50.547Z,48.30
2018-07-01T04:19:50.537Z,48.40
2018-07-01T04:20:50.530Z,48.21
2018-07-01T04:21:50.513Z,48.69
2018-07-01T04:22:50.515Z,48.49
2018-07-01T04:23:50.503Z,48.88
2018-07-01T04:24:50.489Z,48.49
2018-07-01T04:25:53.784Z,49.07
2018-07-01T04:26:50.471Z,49.07
2018-07-01T04:27:50.463Z,49.16
2018-07-01T04:28:50.455Z,49.74
2018-07-01T04:29:50.457Z,50.12
2018-07-01T04:30:50.452Z,49.74
2018-07-01T04:31:50.579Z,49.84
2018-07-01T04:32:50.431Z,50.12
2018-07-01T04:33:50.412Z,50.03
2018-07-01T04:34:50.410Z,50.03
2018-07-01T04:35:50.385Z,50.12
2018-07-01T04:36:50.372Z,50.12
2018-07-01T04:37:50.384Z,50.12
2018-07-01T04:38:50.371Z,50.60
2018-07-01T04:39:50.344Z,50.12
2018-07-01T04:40:50.342Z,50.22
2018-07-01T04:41:50.338Z,50.12
2018-07-01T04:42:50.345Z,50.51
2018-07-01T04:43:50.310Z,50.32
2018-07-01T04:44:50.307Z,50.60
2018-07-01T04:45:50.304Z,50.60
2018-07-01T04:46:50.290Z,50.60
2018-07-01T04:47:50.343Z,50.41
2018-07-01T04:48:50.268Z,50.70
2018-07-01T04:49:50.268Z,50.70
2018-07-01T04:50:50.258Z,50.89
2018-07-01T04:51:50.252Z,50.60
2018-07-01T04:52:50.233Z,50.79
2018-07-01T04:53:50.263Z,50.89
2018-07-01T04:54:50.231Z,51.37
2018-07-01T04:55:50.211Z,51.75
2018-07-01T04:56:50.200Z,51.65
2018-07-01T04:57:50.193Z,51.37
2018-07-01T04:58:50.246Z,50.99
2018-07-01T04:59:50.182Z,51.08
2018-07-01T05:00:50.157Z,50.99
2018-07-01T05:01:50.209Z,51.59
2018-07-01T05:02:50.161Z,51.46
2018-07-01T05:03:50.136Z,50.99
2018-07-01T05:04:50.130Z,50.79
2018-07-01T05:05:50.327Z,50.79
2018-07-01T05:06:50.107Z,50.70
2018-07-01T05:07:50.306Z,51.37
2018-07-01T05:08:50.095Z,51.59
2018-07-01T05:09:50.082Z,51.95
2018-07-01T05:10:50.072Z,51.78
2018-07-01T05:11:50.094Z,51.30
2018-07-01T05:12:50.057Z,51.59
2018-07-01T05:13:50.061Z,51.08
2018-07-01T05:14:50.039Z,50.82
2018-07-01T05:15:50.034Z,51.46
2018-07-01T05:16:50.360Z,51.37
2018-07-01T05:17:50.017Z,50.79
2018-07-01T05:18:49.996Z,51.30
2018-07-01T05:19:49.995Z,51.87
2018-07-01T05:20:49.986Z,51.97
2018-07-01T05:21:49.973Z,51.78
2018-07-01T05:22:49.971Z,51.68
2018-07-01T05:23:49.980Z,52.07
2018-07-01T05:24:49.946Z,51.78
2018-07-01T05:25:49.945Z,52.45
2018-07-01T05:26:49.926Z,52.07
2018-07-01T05:27:50.068Z,51.87
2018-07-01T05:28:49.923Z,51.78
2018-07-01T05:29:49.908Z,51.49
2018-07-01T05:30:49.899Z,51.87
2018-07-01T05:31:49.885Z,51.49
2018-07-01T05:32:49.885Z,51.30
2018-07-01T05:33:50.096Z,51.87
2018-07-01T05:34:49.868Z,51.87
2018-07-01T05:35:49.850Z,51.68
2018-07-01T05:36:49.838Z,51.49
2018-07-01T05:37:49.840Z,51.49
2018-07-01T05:38:50.800Z,51.78
2018-07-01T05:39:49.847Z,51.59
2018-07-01T05:40:49.802Z,51.32
2018-07-01T05:41:49.801Z,50.92
2018-07-01T05:42:49.797Z,51.10
2018-07-01T05:43:49.786Z,51.59
2018-07-01T05:44:49.802Z,51.68
2018-07-01T05:45:50.366Z,51.87
2018-07-01T05:46:49.774Z,51.49
2018-07-01T05:47:49.782Z,51.10
2018-07-01T05:48:49.767Z,51.01
2018-07-01T05:49:49.740Z,51.68
2018-07-01T05:50:49.762Z,51.78
2018-07-01T05:51:49.710Z,51.20
2018-07-01T05:52:49.695Z,51.23
2018-07-01T05:53:49.691Z,51.90
2018-07-01T05:54:49.698Z,50.27
2018-07-01T05:55:49.739Z,50.08
2018-07-01T05:56:49.673Z,51.04
2018-07-01T05:57:49.667Z,51.42
2018-07-01T05:58:49.646Z,50.84
2018-07-01T05:59:49.640Z,50.75
2018-07-01T06:00:49.636Z,51.42
2018-07-01T06:01:49.640Z,51.04
2018-07-01T06:02:49.659Z,50.94
2018-07-01T06:03:49.751Z,51.14
2018-07-01T06:04:49.599Z,51.04
2018-07-01T06:05:49.597Z,50.94
2018-07-01T06:06:49.588Z,50.75
2018-07-01T06:07:49.579Z,50.84
2018-07-01T06:08:50.484Z,51.32
2018-07-01T06:09:49.583Z,51.42
2018-07-01T06:10:49.561Z,51.32
2018-07-01T06:11:49.549Z,51.61
2018-07-01T06:12:49.540Z,51.14
2018-07-01T06:13:49.533Z,50.75
2018-07-01T06:14:49.581Z,50.08
2018-07-01T06:15:49.512Z,50.29
2018-07-01T06:16:49.554Z,50.17
2018-07-01T06:17:49.508Z,50.08
2018-07-01T06:18:49.486Z,50.78
2018-07-01T06:19:49.472Z,50.96
2018-07-01T06:20:49.543Z,50.87
2018-07-01T06:21:49.458Z,51.16
2018-07-01T06:22:49.462Z,51.16
2018-07-01T06:23:49.443Z,51.83
2018-07-01T06:24:49.441Z,51.45
2018-07-01T06:25:49.435Z,51.06
2018-07-01T06:26:49.439Z,50.96
2018-07-01T06:27:49.447Z,51.16
2018-07-01T06:28:49.434Z,50.01
2018-07-01T06:29:49.397Z,50.39
2018-07-01T06:30:49.381Z,50.39
2018-07-01T06:31:49.383Z,50.68
2018-07-01T06:32:49.421Z,50.10
2018-07-01T06:33:49.372Z,50.61
2018-07-01T06:34:49.356Z,50.10
2018-07-01T06:35:49.353Z,49.33
2018-07-01T06:36:49.339Z,49.07
2018-07-01T06:37:49.336Z,48.97
2018-07-01T06:38:49.338Z,49.74
2018-07-01T06:39:49.308Z,49.55
2018-07-01T06:40:49.316Z,48.97
2018-07-01T06:41:49.313Z,49.36
2018-07-01T06:42:49.288Z,48.69
2018-07-01T06:43:49.468Z,48.49
2018-07-01T06:44:49.274Z,49.07
2018-07-01T06:45:49.265Z,48.97
2018-07-01T06:46:49.265Z,49.17
2018-07-01T06:47:49.249Z,49.55
2018-07-01T06:48:49.512Z,49.74
2018-07-01T06:49:49.378Z,49.84
2018-07-01T06:50:49.229Z,49.65
2018-07-01T06:51:49.230Z,49.19
2018-07-01T06:52:49.232Z,48.59
2018-07-01T06:53:49.259Z,48.97
2018-07-01T06:54:49.335Z,48.13
2018-07-01T06:55:49.194Z,48.13
2018-07-01T06:56:49.191Z,48.52
2018-07-01T06:57:49.173Z,48.71
2018-07-01T06:58:49.171Z,48.71
2018-07-01T06:59:49.152Z,47.56
2018-07-01T07:00:49.295Z,47.94
2018-07-01T07:01:49.147Z,47.85
2018-07-01T07:02:49.131Z,47.75
2018-07-01T07:03:49.127Z,48.04
2018-07-01T07:04:49.132Z,47.85
2018-07-01T07:05:49.840Z,47.85
2018-07-01T07:06:49.107Z,47.27
2018-07-01T07:07:49.118Z,46.21
2018-07-01T07:08:49.091Z,45.54
2018-07-01T07:09:49.090Z,45.54
2018-07-01T07:10:49.100Z,45.25
2018-07-01T07:11:49.230Z,44.48
2018-07-01T07:12:49.061Z,45.15
2018-07-01T07:14:06.003Z,45.45
2018-07-01T07:14:49.173Z,45.73
2018-07-01T07:15:55.913Z,46.72
2018-07-01T07:16:49.033Z,46.72
2018-07-01T07:17:49.510Z,46.62
2018-07-01T07:18:50.900Z,47.00
2018-07-01T07:19:49.012Z,46.04
2018-07-01T07:20:49.884Z,44.99
2018-07-01T07:21:48.996Z,44.51
2018-07-01T07:22:49.001Z,42.49
2018-07-01T07:23:48.996Z,42.87
2018-07-01T07:24:48.996Z,44.31
2018-07-01T07:25:48.967Z,44.99
2018-07-01T07:26:49.909Z,47.10
2018-07-01T07:27:48.951Z,46.62
2018-07-01T07:28:48.942Z,47.20
2018-07-01T07:29:48.961Z,47.10
2018-07-01T07:30:49.294Z,45.76
2018-07-01T07:31:49.327Z,45.95
2018-07-01T07:32:49.419Z,43.66
2018-07-01T07:33:48.911Z,42.97
2018-07-01T07:34:48.903Z,44.53
2018-07-01T07:35:48.900Z,43.85
2018-07-01T07:36:49.258Z,41.64
2018-07-01T07:37:48.886Z,41.83
2018-07-01T07:38:49.893Z,40.49
2018-07-01T07:39:51.528Z,39.91
2018-07-01T07:40:48.862Z,40.49
2018-07-01T07:41:48.868Z,40.58
2018-07-01T07:42:48.879Z,40.68
2018-07-01T07:43:48.839Z,40.78
2018-07-01T07:44:48.856Z,40.11
2018-07-01T07:45:48.924Z,40.01
2018-07-01T07:46:48.940Z,39.24
2018-07-01T07:47:49.404Z,39.62
2018-07-01T07:48:48.820Z,38.76
2018-07-01T07:49:51.442Z,36.76
2018-07-01T07:50:52.132Z,36.85
2018-07-01T07:51:49.319Z,36.45
2018-07-01T07:52:49.892Z,36.45
2018-07-01T07:53:48.820Z,37.32
2018-07-01T07:54:48.923Z,36.47
2018-07-01T07:55:49.396Z,37.12
2018-07-01T07:56:48.744Z,37.43
2018-07-01T07:57:48.744Z,37.60
2018-07-01T07:58:49.018Z,37.91
2018-07-01T07:59:48.736Z,37.32
2018-07-01T08:00:48.755Z,35.60
2018-07-01T08:02:24.920Z,35.58
2018-07-01T08:02:48.707Z,36.37
2018-07-01T08:03:48.698Z,36.64
2018-07-01T08:04:48.680Z,36.54
2018-07-01T08:05:49.930Z,36.07
2018-07-01T08:06:48.678Z,35.31
2018-07-01T08:07:48.664Z,35.00
2018-07-01T08:08:48.662Z,35.12
2018-07-01T08:09:48.676Z,35.70
2018-07-01T08:10:48.686Z,34.81
2018-07-01T08:11:48.678Z,35.00
2018-07-01T08:12:48.738Z,33.87
2018-07-01T08:13:49.521Z,33.95
2018-07-01T08:14:48.763Z,35.89
2018-07-01T08:15:48.625Z,35.30
2018-07-01T08:16:49.082Z,34.74
2018-07-01T08:17:48.606Z,34.54
2018-07-01T08:18:49.422Z,33.67
2018-07-01T08:19:48.961Z,33.29
2018-07-01T08:20:48.938Z,33.87
2018-07-01T08:22:50.103Z,34.35
2018-07-01T08:22:50.645Z,35.02
2018-07-01T08:23:50.624Z,34.35
2018-07-01T08:24:50.618Z,33.20
2018-07-01T08:25:50.637Z,33.97
2018-07-01T08:26:50.607Z,34.25
2018-07-01T08:27:50.673Z,34.92
2018-07-01T08:29:13.789Z,33.10
2018-07-01T08:29:50.583Z,34.06
2018-07-01T08:30:51.097Z,33.20
2018-07-01T08:31:50.709Z,33.40
2018-07-01T08:32:50.563Z,31.09
2018-07-01T08:33:50.580Z,29.74
2018-07-01T08:34:50.571Z,30.22
2018-07-01T08:35:50.617Z,29.74
2018-07-01T08:36:51.160Z,29.28
2018-07-01T08:37:50.547Z,29.86
2018-07-01T08:38:51.188Z,28.41
2018-07-01T08:39:50.627Z,29.47
2018-07-01T08:40:50.527Z,29.00
2018-07-01T08:41:50.524Z,28.23
2018-07-01T08:42:50.535Z,28.61
2018-07-01T08:43:50.531Z,28.51
2018-07-01T08:44:50.496Z,28.80
2018-07-01T08:45:51.521Z,28.81
2018-07-01T08:46:51.005Z,28.52
2018-07-01T08:47:50.490Z,28.42
2018-07-01T08:48:52.006Z,28.42
2018-07-01T08:49:50.492Z,29.11
2018-07-01T08:51:03.031Z,29.61
2018-07-01T08:51:50.476Z,28.47
2018-07-01T08:52:50.504Z,28.08
2018-07-01T08:53:50.549Z,27.13
2018-07-01T08:54:50.468Z,25.68
2018-07-01T08:55:50.461Z,25.29
2018-07-01T08:56:50.797Z,25.89
2018-07-01T08:57:50.475Z,26.18
2018-07-01T08:58:50.462Z,25.81
2018-07-01T08:59:50.502Z,26.68
2018-07-01T09:00:50.461Z,26.59
2018-07-01T09:01:50.493Z,24.77
2018-07-01T09:02:50.460Z,25.05
2018-07-01T09:03:50.605Z,25.07
2018-07-01T09:04:50.643Z,24.60
2018-07-01T09:05:50.490Z,24.79
2018-07-01T09:06:50.544Z,25.48
2018-07-01T09:07:50.561Z,24.23
2018-07-01T09:08:51.192Z,23.07
2018-07-01T09:09:50.480Z,22.89
2018-07-01T09:10:50.964Z,23.18
2018-07-01T09:11:50.883Z,22.89
2018-07-01T09:12:52.019Z,23.87
2018-07-01T09:13:50.483Z,23.30
2018-07-01T09:14:50.483Z,23.50
2018-07-01T09:15:50.486Z,24.38
2018-07-01T09:16:50.501Z,24.88
2018-07-01T09:17:50.504Z,25.18
2018-07-01T09:18:50.497Z,24.82
2018-07-01T09:19:50.499Z,25.02
2018-07-01T09:20:50.753Z,22.49
2018-07-01T09:21:50.498Z,19.67
2018-07-01T09:22:50.552Z,19.47
2018-07-01T09:23:50.617Z,21.42
2018-07-01T09:24:50.522Z,22.30
2018-07-01T09:25:50.533Z,22.78
2018-07-01T09:26:51.048Z,22.41
2018-07-01T09:27:52.608Z,22.79
2018-07-01T09:28:50.558Z,23.68
2018-07-01T09:29:50.609Z,22.22
2018-07-01T09:30:50.568Z,21.64
2018-07-01T09:31:50.562Z,20.17
2018-07-01T09:32:50.597Z,18.52
2018-07-01T09:33:50.624Z,18.02
2018-07-01T09:34:50.597Z,19.29
2018-07-01T09:35:50.599Z,19.87
2018-07-01T09:36:50.594Z,18.21
2018-07-01T09:37:50.609Z,19.08
2018-07-01T09:38:50.803Z,17.72
2018-07-01T09:39:50.605Z,18.90
2018-07-01T09:40:50.611Z,18.31
2018-07-01T09:41:50.631Z,19.68
2018-07-01T09:42:50.639Z,20.37
2018-07-01T09:43:50.641Z,20.48
2018-07-01T09:44:50.669Z,21.26
2018-07-01T09:45:50.638Z,21.58
2018-07-01T09:46:50.654Z,19.24
2018-07-01T09:47:50.664Z,19.44
2018-07-01T09:48:50.851Z,18.85
2018-07-01T09:49:50.808Z,19.26
2018-07-01T09:50:50.679Z,18.97
2018-07-01T09:51:50.689Z,18.79
2018-07-01T09:52:51.549Z,15.56
2018-07-01T09:53:50.699Z,15.86
2018-07-01T09:54:50.701Z,14.68
2018-07-01T09:55:50.751Z,13.89
2018-07-01T09:56:51.062Z,15.85
2018-07-01T09:57:50.734Z,15.76
2018-07-01T09:58:50.748Z,15.56
2018-07-01T09:59:50.894Z,16.25
2018-07-01T10:00:50.805Z,15.77
2018-07-01T10:01:50.788Z,15.97
2018-07-01T10:02:50.780Z,13.62
2018-07-01T10:03:50.801Z,12.84
2018-07-01T10:04:51.576Z,12.73
2018-07-01T10:05:50.844Z,13.42
2018-07-01T10:06:50.808Z,13.51
2018-07-01T10:07:50.852Z,15.77
2018-07-01T10:08:51.574Z,14.79
2018-07-01T10:09:50.884Z,12.74
2018-07-01T10:10:51.178Z,13.13
2018-07-01T10:11:50.917Z,14.90
2018-07-01T10:12:51.259Z,13.82
2018-07-01T10:13:51.562Z,15.29
2018-07-01T10:14:50.944Z,12.65
2018-07-01T10:15:51.304Z,14.22
2018-07-01T10:16:50.936Z,14.01
2018-07-01T10:17:50.925Z,14.01
2018-07-01T10:18:50.961Z,12.94
2018-07-01T10:19:50.926Z,13.91
2018-07-01T10:20:50.927Z,14.60
2018-07-01T10:21:50.968Z,13.71
2018-07-01T10:22:50.949Z,14.30
2018-07-01T10:23:51.013Z,12.54
2018-07-01T10:24:50.948Z,14.20
2018-07-01T10:25:51.850Z,14.49
2018-07-01T10:26:51.161Z,14.89
2018-07-01T10:27:50.979Z,13.91
2018-07-01T10:28:51.590Z,13.91
2018-07-01T10:29:51.171Z,14.80
2018-07-01T10:30:51.005Z,13.92
2018-07-01T10:31:51.020Z,15.19
2018-07-01T10:32:51.015Z,15.50
2018-07-01T10:33:51.161Z,15.70
2018-07-01T10:34:51.082Z,15.91
2018-07-01T10:35:51.138Z,15.13
2018-07-01T10:36:51.053Z,15.82
2018-07-01T10:37:51.056Z,12.98
2018-07-01T10:38:51.078Z,12.78
2018-07-01T10:39:51.095Z,12.48
2018-07-01T10:40:51.106Z,13.46
2018-07-01T10:41:51.130Z,13.55
2018-07-01T10:42:51.110Z,14.14
2018-07-01T10:43:51.461Z,14.34
2018-07-01T10:44:52.091Z,14.64
2018-07-01T10:45:51.214Z,15.44
2018-07-01T10:46:51.188Z,15.93
2018-07-01T10:47:51.150Z,15.93
2018-07-01T10:49:02.367Z,13.97
2018-07-01T10:49:51.184Z,12.79
2018-07-01T10:50:51.614Z,12.39
2018-07-01T10:51:51.187Z,14.76
2018-07-01T10:52:51.192Z,15.06
2018-07-01T10:53:51.219Z,13.87
2018-07-01T10:54:51.215Z,15.36
2018-07-01T10:55:51.254Z,14.18
2018-07-01T10:56:51.245Z,14.58
2018-07-01T10:57:51.318Z,13.49
2018-07-01T10:58:51.260Z,11.43
2018-07-01T10:59:51.259Z,12.40
2018-07-01T11:00:52.101Z,14.28
2018-07-01T11:01:51.302Z,14.97
2018-07-01T11:02:51.299Z,15.07
2018-07-01T11:03:51.306Z,14.98
2018-07-01T11:04:51.308Z,12.91
2018-07-01T11:05:51.345Z,13.60
2018-07-01T11:06:51.355Z,12.90
2018-07-01T11:07:51.402Z,11.13
2018-07-01T11:08:51.535Z,11.22
2018-07-01T11:09:51.405Z,11.70
2018-07-01T11:10:53.119Z,12.29
2018-07-01T11:11:52.104Z,12.88
2018-07-01T11:12:51.965Z,12.19
2018-07-01T11:13:51.514Z,11.69
2018-07-01T11:14:52.116Z,12.87
2018-07-01T11:15:51.456Z,14.23
2018-07-01T11:16:51.474Z,12.36
2018-07-01T11:17:51.556Z,12.85
2018-07-01T11:18:52.226Z,12.75
2018-07-01T11:19:51.454Z,14.22
2018-07-01T11:20:51.477Z,15.10
2018-07-01T11:21:51.484Z,15.79
2018-07-01T11:22:52.238Z,15.11
2018-07-01T11:23:51.512Z,14.62
2018-07-01T11:24:51.680Z,15.11
2018-07-01T11:25:51.511Z,15.31
2018-07-01T11:26:52.338Z,15.80
2018-07-01T11:27:51.519Z,14.62
2018-07-01T11:28:51.532Z,13.95
2018-07-01T11:29:51.566Z,12.87
2018-07-01T11:30:51.567Z,13.85
2018-07-01T11:31:51.614Z,15.23
2018-07-01T11:32:51.639Z,12.68
2018-07-01T11:33:51.600Z,13.07
2018-07-01T11:34:51.956Z,12.87
2018-07-01T11:35:51.597Z,11.88
2018-07-01T11:36:51.631Z,13.95
2018-07-01T11:37:51.621Z,14.04
2018-07-01T11:38:51.630Z,14.15
2018-07-01T11:39:51.644Z,14.94
2018-07-01T11:40:51.655Z,13.85
2018-07-01T11:41:51.670Z,14.75
2018-07-01T11:42:51.684Z,14.75
2018-07-01T11:43:51.713Z,13.78
2018-07-01T11:44:52.135Z,12.98
2018-07-01T11:45:51.698Z,11.40
2018-07-01T11:46:51.710Z,11.79
2018-07-01T11:47:51.750Z,12.76
2018-07-01T11:48:51.752Z,13.54
2018-07-01T11:49:53.265Z,15.11
2018-07-01T11:50:51.872Z,14.72
2018-07-01T11:51:51.770Z,14.92
2018-07-01T11:52:51.756Z,13.75
2018-07-01T11:53:51.830Z,13.75
2018-07-01T11:54:51.809Z,14.72
2018-07-01T11:55:53.659Z,15.21
2018-07-01T11:56:51.822Z,15.59
2018-07-01T11:57:51.822Z,15.40
2018-07-01T11:58:51.823Z,15.69
2018-07-01T11:59:51.899Z,14.00
2018-07-01T12:00:52.688Z,15.67
2018-07-01T12:01:51.923Z,16.64
2018-07-01T12:02:51.874Z,17.12
2018-07-01T12:03:51.871Z,16.13
2018-07-01T12:05:16.210Z,16.91
2018-07-01T12:05:51.950Z,16.61
2018-07-01T12:06:51.881Z,17.19
2018-07-01T12:07:52.025Z,16.99
2018-07-01T12:08:52.163Z,17.68
2018-07-01T12:09:51.900Z,17.96
2018-07-01T12:10:51.902Z,18.15
2018-07-01T12:11:51.957Z,18.24
2018-07-01T12:12:51.926Z,18.63
2018-07-01T12:13:51.906Z,18.13
2018-07-01T12:14:51.919Z,17.15
2018-07-01T12:15:51.918Z,18.90
2018-07-01T12:16:52.134Z,19.20
2018-07-01T12:17:51.999Z,19.58
2018-07-01T12:18:52.154Z,19.18
2018-07-01T12:19:52.211Z,19.67
2018-07-01T12:20:51.946Z,20.25
2018-07-01T12:21:51.947Z,19.65
2018-07-01T12:22:52.248Z,20.43
2018-07-01T12:23:51.934Z,20.62
2018-07-01T12:24:51.948Z,20.91
2018-07-01T12:25:52.168Z,20.72
2018-07-01T12:26:54.670Z,21.50
2018-07-01T12:27:51.947Z,21.79
2018-07-01T12:28:51.989Z,22.07
2018-07-01T12:29:51.956Z,22.45
2018-07-01T12:30:51.949Z,21.88
2018-07-01T12:31:51.971Z,22.16
2018-07-01T12:32:52.133Z,22.35
2018-07-01T12:33:52.016Z,22.83
2018-07-01T12:34:51.982Z,22.64
2018-07-01T12:35:51.969Z,21.96
2018-07-01T12:36:52.019Z,22.63
2018-07-01T12:37:51.958Z,23.21
2018-07-01T12:38:53.692Z,23.21
2018-07-01T12:39:51.960Z,23.60
2018-07-01T12:40:53.680Z,22.92
2018-07-01T12:41:52.055Z,23.59
2018-07-01T12:42:51.993Z,23.69
2018-07-01T12:44:00.204Z,23.39
2018-07-01T12:44:51.950Z,24.07
2018-07-01T12:45:51.956Z,24.07
2018-07-01T12:46:53.216Z,23.30
2018-07-01T12:47:51.954Z,22.80
2018-07-01T12:48:53.670Z,22.80
2018-07-01T12:49:58.765Z,22.30
2018-07-01T12:50:52.494Z,22.50
2018-07-01T12:51:51.998Z,22.99
2018-07-01T12:52:51.997Z,24.05